Nearby METAR Reports

 

YBUD - Bundaberg, Australia
Distance from station: SSW 6km
Updated: 19/09/2020 06:00
Clear
Clear
 Wind from S
Wind: S 11 km/h
Temperature: 15°C
Dew Point: 13°C
Humidity: 88%
Barometer: 1023 hPa
Clouds: Clear
Visibility: 10 km
2020/09/18 20:00 YBUD 182000Z AUTO 18006KT 9999 // NCD 15/13 Q1023
YGLA - Gladstone, Australia
Distance from station: NW 159km
Updated: 19/09/2020 06:00
Partly cloudy
Partly cloudy
 Wind from SSE
Wind: SSE 11 km/h
Temperature: 19°C
Dew Point: 14°C
Humidity: 73%
Barometer: 1022 hPa
Clouds: Partly cloudy
Visibility: 10 km
Cloud details: Partly cloudy 945 m
2020/09/18 20:00 YGLA 182000Z AUTO 15006KT 9999 // SCT031 19/14 Q1022 RF00.0/000.0
YBRK - Rockhampton Airp, Australia
Distance from station: NW 252km
Updated: 19/09/2020 06:00
Overcast
Overcast
 Wind from SE
Wind: SE 13 km/h
Temperature: 19°C
Dew Point: 16°C
Humidity: 83%
Barometer: 1021 hPa
Clouds: Overcast
Visibility: 10 km
Cloud details: Overcast 1036 m
2020/09/18 20:00 YBRK 182000Z AUTO 13007KT 9999 // OVC034 19/16 Q1021 RF00.0/000.0
 
YBBN - Brisbane Intl Ar, Australia
Distance from station: SSE 292km
Updated: 19/09/2020 06:00
Shallow fog, Partly cloudy
Shallow fog, Partly cloudy
 Wind from S
Wind: S 7 km/h
Temperature: 16°C
Dew Point: 15°C
Humidity: 94%
Barometer: 1025 hPa
Summary: Shallow Fog
Clouds: Partly cloudy
Visibility: 10 km
Cloud details: Partly cloudy 1189 m
2020/09/18 20:00 YBBN 182000Z 19004KT 9999 MIFG SCT039 16/15 Q1025
YAMB - Amberley, Australia
Distance from station: S 312km
Updated: 19/09/2020 06:00
Partly cloudy
Partly cloudy
 Wind from calm
Wind: Calm
Temperature: 15°C
Dew Point: 14°C
Humidity: 94%
Barometer: 1025 hPa
Clouds: Partly cloudy
Visibility: 1 km
Cloud details: Partly cloudy 1768 m
2020/09/18 20:00 YAMB 182000Z AUTO 00000KT 0500 // SCT058 15/14 Q1025
YBCG - Coolangatta Aws, Australia
Distance from station: SSE 386km
Updated: 18/09/2020 16:30
NOT Current
Partly cloudy
Partly cloudy
 Wind from ESE
Wind: ESE 26 km/h
Temperature: 22°C
Dew Point: 15°C
Humidity: 65%
Barometer: 1025 hPa
Clouds: Partly cloudy
Visibility: 10 km
Cloud details: Partly cloudy 792 m
2020/09/18 06:30 YBCG 180630Z AUTO 12014KT 9999 // SCT026 22/15 Q1025 RF00.0/000.0